KDAL METAR and TAF | Updated Today

KDAL METAR

Dallas Love Field

Observation time: 31 min. ago

KDAL 302053Z 07003KT 10SM BKN250 11/M08 A3041 RMK AO2 SLP299 T01061083 55011 $

Need help? Read our tutorial on how to read METARs or read the parsed version below.

Dallas Love Field (KDAL) METAR

  • Weather conditions on Wed, 30 Nov 2022 20:53:00 +0000 (31 min. ago):
  • Present conditions: Dry
  • Clouds: Broken sky at 7620 meters
  • Visibility: 16093 meters
  • Wind: 70 degrees at 3 knots
  • Temperature: 11 celsius
  • Dew point: -8 celsius
  • Pressure: 30.41 inHg
  • Remarks: AO2 SLP299 T01061083 55011 $


Useful to know...

KDAL TAF

Dallas Love Field

KDAL 302102Z 3021/0118 02009KT P6SM SCT250 FM302300 05005KT P6SM SCT250 FM011200 12009KT P6SM BKN250
Observation time: 22 min. ago
Need help? Read our tutorial on how to read TAFs or read the parsed version below.

Parsed version of TAF for Dallas Love Field (KDAL)

  • From 30 November at 21:00 UTC, to day 01 of the month at 18:00 UTC
  • Clouds: Scattered at 7620 meters
  • Wind: 20 degrees at 9
  • From day 30 of the month at 23:00 UTC
  • Clouds: Scattered at 7620 meters
  • Wind: 50 degrees at 5
  • From day 1 of the month at 12:00 UTC
  • Clouds: Broken sky at 7620 meters
  • Wind: 120 degrees at 9